sensor_id;sensor_type;location;lat;lon;timestamp;temperature;humidity
31729;DHT22;18309;43.658;1.312;2023-08-07T00:00:35;17.70;94.80
31729;DHT22;18309;43.658;1.312;2023-08-07T00:03:01;17.70;94.80
31729;DHT22;18309;43.658;1.312;2023-08-07T00:05:28;17.70;94.80
31729;DHT22;18309;43.658;1.312;2023-08-07T00:07:53;17.70;94.90
31729;DHT22;18309;43.658;1.312;2023-08-07T00:10:19;17.70;94.80
31729;DHT22;18309;43.658;1.312;2023-08-07T00:12:45;17.70;94.90
31729;DHT22;18309;43.658;1.312;2023-08-07T00:15:10;17.60;94.80
31729;DHT22;18309;43.658;1.312;2023-08-07T00:17:37;17.70;94.90
31729;DHT22;18309;43.658;1.312;2023-08-07T00:20:04;17.60;95.00
31729;DHT22;18309;43.658;1.312;2023-08-07T00:22:30;17.50;95.00
31729;DHT22;18309;43.658;1.312;2023-08-07T00:24:55;17.50;95.10
31729;DHT22;18309;43.658;1.312;2023-08-07T00:27:21;17.50;95.10
31729;DHT22;18309;43.658;1.312;2023-08-07T00:29:47;17.50;95.10
31729;DHT22;18309;43.658;1.312;2023-08-07T00:32:12;17.40;95.10
31729;DHT22;18309;43.658;1.312;2023-08-07T00:34:38;17.40;95.10
31729;DHT22;18309;43.658;1.312;2023-08-07T00:37:04;17.40;95.10
31729;DHT22;18309;43.658;1.312;2023-08-07T00:39:30;17.40;95.10
31729;DHT22;18309;43.658;1.312;2023-08-07T00:41:56;17.40;95.20
31729;DHT22;18309;43.658;1.312;2023-08-07T00:44:21;17.30;95.30
31729;DHT22;18309;43.658;1.312;2023-08-07T00:46:49;17.40;95.10
31729;DHT22;18309;43.658;1.312;2023-08-07T00:49:16;17.40;95.30
31729;DHT22;18309;43.658;1.312;2023-08-07T00:51:43;17.30;95.50
31729;DHT22;18309;43.658;1.312;2023-08-07T00:54:11;17.30;95.30
31729;DHT22;18309;43.658;1.312;2023-08-07T00:56:37;17.20;95.60
31729;DHT22;18309;43.658;1.312;2023-08-07T00:59:04;17.20;95.70
31729;DHT22;18309;43.658;1.312;2023-08-07T01:01:30;17.20;95.70
31729;DHT22;18309;43.658;1.312;2023-08-07T01:03:56;17.20;95.70
31729;DHT22;18309;43.658;1.312;2023-08-07T01:06:22;17.00;96.00
31729;DHT22;18309;43.658;1.312;2023-08-07T01:08:47;16.90;96.20
31729;DHT22;18309;43.658;1.312;2023-08-07T01:19:03;16.60;96.80
31729;DHT22;18309;43.658;1.312;2023-08-07T01:21:32;16.60;96.90
31729;DHT22;18309;43.658;1.312;2023-08-07T01:23:58;16.60;97.10
31729;DHT22;18309;43.658;1.312;2023-08-07T01:26:23;16.50;97.00
31729;DHT22;18309;43.658;1.312;2023-08-07T01:29:09;16.50;97.10
31729;DHT22;18309;43.658;1.312;2023-08-07T01:31:39;16.50;97.10
31729;DHT22;18309;43.658;1.312;2023-08-07T01:34:07;16.60;97.20
31729;DHT22;18309;43.658;1.312;2023-08-07T01:36:34;16.50;97.20
31729;DHT22;18309;43.658;1.312;2023-08-07T01:39:01;16.50;97.20
31729;DHT22;18309;43.658;1.312;2023-08-07T01:41:29;16.50;97.30
31729;DHT22;18309;43.658;1.312;2023-08-07T01:43:55;16.50;97.40
31729;DHT22;18309;43.658;1.312;2023-08-07T01:46:21;16.30;97.60
31729;DHT22;18309;43.658;1.312;2023-08-07T01:48:46;16.30;97.70
31729;DHT22;18309;43.658;1.312;2023-08-07T01:51:12;16.30;97.70
31729;DHT22;18309;43.658;1.312;2023-08-07T01:53:38;16.20;97.80
31729;DHT22;18309;43.658;1.312;2023-08-07T01:56:04;16.20;98.20
31729;DHT22;18309;43.658;1.312;2023-08-07T01:58:29;16.30;98.00
31729;DHT22;18309;43.658;1.312;2023-08-07T02:00:55;16.20;97.90
31729;DHT22;18309;43.658;1.312;2023-08-07T02:03:20;16.20;98.00
31729;DHT22;18309;43.658;1.312;2023-08-07T02:05:46;16.20;97.90
31729;DHT22;18309;43.658;1.312;2023-08-07T02:08:12;16.10;98.30
31729;DHT22;18309;43.658;1.312;2023-08-07T02:10:38;16.00;98.30
31729;DHT22;18309;43.658;1.312;2023-08-07T02:13:04;16.00;98.50
31729;DHT22;18309;43.658;1.312;2023-08-07T02:15:29;16.00;98.40
31729;DHT22;18309;43.658;1.312;2023-08-07T02:17:55;15.90;98.60
31729;DHT22;18309;43.658;1.312;2023-08-07T02:20:21;15.80;98.70
31729;DHT22;18309;43.658;1.312;2023-08-07T02:22:46;15.80;98.70
31729;DHT22;18309;43.658;1.312;2023-08-07T02:25:12;15.70;98.70
31729;DHT22;18309;43.658;1.312;2023-08-07T02:27:38;15.70;98.80
31729;DHT22;18309;43.658;1.312;2023-08-07T02:30:04;15.80;98.80
31729;DHT22;18309;43.658;1.312;2023-08-07T02:32:30;15.60;99.10
31729;DHT22;18309;43.658;1.312;2023-08-07T02:34:56;15.60;99.10
31729;DHT22;18309;43.658;1.312;2023-08-07T02:37:22;15.50;99.30
31729;DHT22;18309;43.658;1.312;2023-08-07T02:39:48;15.50;99.30
31729;DHT22;18309;43.658;1.312;2023-08-07T02:42:13;15.50;99.30
31729;DHT22;18309;43.658;1.312;2023-08-07T02:44:39;15.40;99.50
31729;DHT22;18309;43.658;1.312;2023-08-07T02:47:05;15.40;99.70
31729;DHT22;18309;43.658;1.312;2023-08-07T02:49:31;15.30;99.80
31729;DHT22;18309;43.658;1.312;2023-08-07T02:51:56;15.30;99.80
31729;DHT22;18309;43.658;1.312;2023-08-07T02:54:22;15.30;99.80
31729;DHT22;18309;43.658;1.312;2023-08-07T02:56:48;15.30;99.80
31729;DHT22;18309;43.658;1.312;2023-08-07T02:59:14;15.10;99.90
31729;DHT22;18309;43.658;1.312;2023-08-07T03:01:40;15.00;99.90
31729;DHT22;18309;43.658;1.312;2023-08-07T03:04:06;14.80;99.90
31729;DHT22;18309;43.658;1.312;2023-08-07T03:06:32;15.00;99.90
31729;DHT22;18309;43.658;1.312;2023-08-07T03:08:57;15.00;99.90
31729;DHT22;18309;43.658;1.312;2023-08-07T03:11:23;15.00;99.90
31729;DHT22;18309;43.658;1.312;2023-08-07T03:13:49;15.10;99.90
31729;DHT22;18309;43.658;1.312;2023-08-07T03:16:15;15.00;99.90
31729;DHT22;18309;43.658;1.312;2023-08-07T03:18:40;14.90;99.90
31729;DHT22;18309;43.658;1.312;2023-08-07T03:21:06;14.80;99.90
31729;DHT22;18309;43.658;1.312;2023-08-07T03:23:32;14.80;99.90
31729;DHT22;18309;43.658;1.312;2023-08-07T03:26:08;14.70;99.90
31729;DHT22;18309;43.658;1.312;2023-08-07T03:28:35;14.80;99.90
31729;DHT22;18309;43.658;1.312;2023-08-07T03:31:02;14.60;99.90
31729;DHT22;18309;43.658;1.312;2023-08-07T03:33:28;14.40;99.90
31729;DHT22;18309;43.658;1.312;2023-08-07T03:35:53;14.50;99.90
31729;DHT22;18309;43.658;1.312;2023-08-07T03:38:19;14.50;99.90
31729;DHT22;18309;43.658;1.312;2023-08-07T03:40:45;14.40;99.90
31729;DHT22;18309;43.658;1.312;2023-08-07T03:43:11;14.30;99.90
31729;DHT22;18309;43.658;1.312;2023-08-07T03:45:38;14.30;99.90
31729;DHT22;18309;43.658;1.312;2023-08-07T03:48:04;14.30;99.90
31729;DHT22;18309;43.658;1.312;2023-08-07T03:50:30;14.40;99.90
31729;DHT22;18309;43.658;1.312;2023-08-07T03:52:56;14.30;99.90
31729;DHT22;18309;43.658;1.312;2023-08-07T03:55:22;14.30;99.90
31729;DHT22;18309;43.658;1.312;2023-08-07T03:57:47;14.30;99.90
31729;DHT22;18309;43.658;1.312;2023-08-07T04:00:13;14.40;99.90
31729;DHT22;18309;43.658;1.312;2023-08-07T04:02:39;14.40;99.90
31729;DHT22;18309;43.658;1.312;2023-08-07T04:05:06;14.50;99.90
31729;DHT22;18309;43.658;1.312;2023-08-07T04:07:31;14.50;99.90
31729;DHT22;18309;43.658;1.312;2023-08-07T04:09:57;14.50;99.90
31729;DHT22;18309;43.658;1.312;2023-08-07T04:12:23;14.60;99.90
31729;DHT22;18309;43.658;1.312;2023-08-07T04:14:48;14.60;99.90
31729;DHT22;18309;43.658;1.312;2023-08-07T04:17:14;14.40;99.90
31729;DHT22;18309;43.658;1.312;2023-08-07T04:19:40;14.40;99.90
31729;DHT22;18309;43.658;1.312;2023-08-07T04:22:05;14.40;99.90
31729;DHT22;18309;43.658;1.312;2023-08-07T04:24:31;14.40;99.90
31729;DHT22;18309;43.658;1.312;2023-08-07T04:26:56;14.50;99.90
31729;DHT22;18309;43.658;1.312;2023-08-07T04:29:23;14.20;99.90
31729;DHT22;18309;43.658;1.312;2023-08-07T04:31:49;14.30;99.90
31729;DHT22;18309;43.658;1.312;2023-08-07T04:34:14;14.30;99.90
31729;DHT22;18309;43.658;1.312;2023-08-07T04:36:40;14.40;99.90
31729;DHT22;18309;43.658;1.312;2023-08-07T04:39:06;14.30;99.90
31729;DHT22;18309;43.658;1.312;2023-08-07T04:41:32;14.30;99.90
31729;DHT22;18309;43.658;1.312;2023-08-07T04:43:58;14.30;99.90
31729;DHT22;18309;43.658;1.312;2023-08-07T04:46:24;14.40;99.90
31729;DHT22;18309;43.658;1.312;2023-08-07T04:48:49;14.30;99.90
31729;DHT22;18309;43.658;1.312;2023-08-07T04:51:15;14.40;99.90
31729;DHT22;18309;43.658;1.312;2023-08-07T04:53:41;14.30;99.90
31729;DHT22;18309;43.658;1.312;2023-08-07T04:56:06;14.40;99.90
31729;DHT22;18309;43.658;1.312;2023-08-07T04:58:32;14.30;99.90
31729;DHT22;18309;43.658;1.312;2023-08-07T05:00:59;14.30;99.90
31729;DHT22;18309;43.658;1.312;2023-08-07T05:03:25;14.20;99.90
31729;DHT22;18309;43.658;1.312;2023-08-07T05:05:58;14.20;99.90
31729;DHT22;18309;43.658;1.312;2023-08-07T05:08:24;14.20;99.90
31729;DHT22;18309;43.658;1.312;2023-08-07T05:10:50;14.20;99.90
31729;DHT22;18309;43.658;1.312;2023-08-07T05:13:15;14.20;99.90
31729;DHT22;18309;43.658;1.312;2023-08-07T05:15:41;14.20;99.90
31729;DHT22;18309;43.658;1.312;2023-08-07T05:18:07;14.20;99.90
31729;DHT22;18309;43.658;1.312;2023-08-07T05:20:33;14.20;99.90
31729;DHT22;18309;43.658;1.312;2023-08-07T05:22:58;14.20;99.90
31729;DHT22;18309;43.658;1.312;2023-08-07T05:25:24;14.30;99.90
31729;DHT22;18309;43.658;1.312;2023-08-07T05:27:50;14.10;99.90
31729;DHT22;18309;43.658;1.312;2023-08-07T05:30:15;14.20;99.90
31729;DHT22;18309;43.658;1.312;2023-08-07T05:32:41;14.30;99.90
31729;DHT22;18309;43.658;1.312;2023-08-07T05:35:07;14.10;99.90
31729;DHT22;18309;43.658;1.312;2023-08-07T05:37:34;14.20;99.90
31729;DHT22;18309;43.658;1.312;2023-08-07T05:40:00;14.20;99.90
31729;DHT22;18309;43.658;1.312;2023-08-07T05:42:26;14.20;99.90
31729;DHT22;18309;43.658;1.312;2023-08-07T05:44:52;14.30;99.90
31729;DHT22;18309;43.658;1.312;2023-08-07T05:47:18;14.40;99.90
31729;DHT22;18309;43.658;1.312;2023-08-07T05:49:44;14.50;99.90
31729;DHT22;18309;43.658;1.312;2023-08-07T05:52:10;14.60;99.90
31729;DHT22;18309;43.658;1.312;2023-08-07T05:54:35;14.30;99.90
31729;DHT22;18309;43.658;1.312;2023-08-07T05:57:01;14.30;99.90
31729;DHT22;18309;43.658;1.312;2023-08-07T05:59:26;14.30;99.90
31729;DHT22;18309;43.658;1.312;2023-08-07T06:01:53;14.50;99.90
31729;DHT22;18309;43.658;1.312;2023-08-07T06:04:18;14.50;99.90
31729;DHT22;18309;43.658;1.312;2023-08-07T06:06:44;14.70;99.90
31729;DHT22;18309;43.658;1.312;2023-08-07T06:09:11;14.80;99.90
31729;DHT22;18309;43.658;1.312;2023-08-07T06:11:37;15.00;99.90
31729;DHT22;18309;43.658;1.312;2023-08-07T06:14:02;15.10;99.90
31729;DHT22;18309;43.658;1.312;2023-08-07T06:16:28;15.30;99.90
31729;DHT22;18309;43.658;1.312;2023-08-07T06:18:54;15.30;99.90
31729;DHT22;18309;43.658;1.312;2023-08-07T06:21:19;15.40;99.90
31729;DHT22;18309;43.658;1.312;2023-08-07T06:23:46;15.50;99.90
31729;DHT22;18309;43.658;1.312;2023-08-07T06:26:12;15.50;99.90
31729;DHT22;18309;43.658;1.312;2023-08-07T06:28:38;15.50;99.90
31729;DHT22;18309;43.658;1.312;2023-08-07T06:31:09;15.60;99.90
31729;DHT22;18309;43.658;1.312;2023-08-07T06:33:35;15.60;99.90
31729;DHT22;18309;43.658;1.312;2023-08-07T06:36:02;15.70;99.90
31729;DHT22;18309;43.658;1.312;2023-08-07T06:38:28;15.70;99.90
31729;DHT22;18309;43.658;1.312;2023-08-07T06:40:54;15.90;99.90
31729;DHT22;18309;43.658;1.312;2023-08-07T06:43:19;15.90;99.90
31729;DHT22;18309;43.658;1.312;2023-08-07T06:45:56;16.00;99.90
31729;DHT22;18309;43.658;1.312;2023-08-07T06:48:23;16.00;99.90
31729;DHT22;18309;43.658;1.312;2023-08-07T06:50:50;16.00;99.90
31729;DHT22;18309;43.658;1.312;2023-08-07T06:53:16;16.10;99.90
31729;DHT22;18309;43.658;1.312;2023-08-07T06:55:42;16.10;99.90
31729;DHT22;18309;43.658;1.312;2023-08-07T06:58:08;16.20;99.90
31729;DHT22;18309;43.658;1.312;2023-08-07T07:00:35;16.20;99.90
31729;DHT22;18309;43.658;1.312;2023-08-07T07:03:01;16.20;99.90
31729;DHT22;18309;43.658;1.312;2023-08-07T07:05:27;16.30;99.90
31729;DHT22;18309;43.658;1.312;2023-08-07T07:07:53;16.30;99.90
31729;DHT22;18309;43.658;1.312;2023-08-07T07:10:20;16.40;99.90
31729;DHT22;18309;43.658;1.312;2023-08-07T07:12:46;16.50;99.90
31729;DHT22;18309;43.658;1.312;2023-08-07T07:15:11;16.50;99.90
31729;DHT22;18309;43.658;1.312;2023-08-07T07:17:37;16.50;99.90
31729;DHT22;18309;43.658;1.312;2023-08-07T07:20:03;16.70;99.90
31729;DHT22;18309;43.658;1.312;2023-08-07T07:22:29;16.70;99.90
31729;DHT22;18309;43.658;1.312;2023-08-07T07:24:55;16.70;99.90
31729;DHT22;18309;43.658;1.312;2023-08-07T07:27:21;16.80;99.90
31729;DHT22;18309;43.658;1.312;2023-08-07T07:29:48;16.80;99.70
31729;DHT22;18309;43.658;1.312;2023-08-07T07:32:14;16.90;99.60
31729;DHT22;18309;43.658;1.312;2023-08-07T07:34:40;16.90;99.40
31729;DHT22;18309;43.658;1.312;2023-08-07T07:37:05;17.00;99.20
31729;DHT22;18309;43.658;1.312;2023-08-07T07:39:31;17.00;99.20
31729;DHT22;18309;43.658;1.312;2023-08-07T07:41:57;17.10;98.60
31729;DHT22;18309;43.658;1.312;2023-08-07T07:44:22;17.20;98.50
31729;DHT22;18309;43.658;1.312;2023-08-07T07:46:48;17.20;98.50
31729;DHT22;18309;43.658;1.312;2023-08-07T07:49:14;17.30;99.00
31729;DHT22;18309;43.658;1.312;2023-08-07T07:51:39;17.40;97.80
31729;DHT22;18309;43.658;1.312;2023-08-07T07:54:06;17.50;97.90
31729;DHT22;18309;43.658;1.312;2023-08-07T07:56:32;17.60;97.10
31729;DHT22;18309;43.658;1.312;2023-08-07T07:58:57;17.60;96.80
31729;DHT22;18309;43.658;1.312;2023-08-07T08:01:23;17.60;96.30
31729;DHT22;18309;43.658;1.312;2023-08-07T08:03:49;18.20;99.90
31729;DHT22;18309;43.658;1.312;2023-08-07T08:06:14;18.50;96.10
31729;DHT22;18309;43.658;1.312;2023-08-07T08:08:41;18.30;95.50
31729;DHT22;18309;43.658;1.312;2023-08-07T08:11:08;18.30;95.60
31729;DHT22;18309;43.658;1.312;2023-08-07T08:13:34;18.20;95.60
31729;DHT22;18309;43.658;1.312;2023-08-07T08:16:04;18.30;95.00
31729;DHT22;18309;43.658;1.312;2023-08-07T08:18:29;18.30;95.30
31729;DHT22;18309;43.658;1.312;2023-08-07T08:20:55;18.40;94.60
31729;DHT22;18309;43.658;1.312;2023-08-07T08:23:21;18.40;94.80
31729;DHT22;18309;43.658;1.312;2023-08-07T08:25:47;18.40;94.90
31729;DHT22;18309;43.658;1.312;2023-08-07T08:28:13;18.60;94.70
31729;DHT22;18309;43.658;1.312;2023-08-07T08:30:38;18.60;94.70
31729;DHT22;18309;43.658;1.312;2023-08-07T08:33:04;18.60;94.40
31729;DHT22;18309;43.658;1.312;2023-08-07T08:35:31;18.70;94.10
31729;DHT22;18309;43.658;1.312;2023-08-07T08:37:57;18.80;94.10
31729;DHT22;18309;43.658;1.312;2023-08-07T08:40:24;18.80;93.70
31729;DHT22;18309;43.658;1.312;2023-08-07T08:42:50;18.90;93.90
31729;DHT22;18309;43.658;1.312;2023-08-07T08:45:19;18.80;93.90
31729;DHT22;18309;43.658;1.312;2023-08-07T08:47:46;19.00;93.50
31729;DHT22;18309;43.658;1.312;2023-08-07T08:50:14;19.00;93.70
31729;DHT22;18309;43.658;1.312;2023-08-07T08:52:44;19.10;92.70
31729;DHT22;18309;43.658;1.312;2023-08-07T08:55:11;19.00;92.20
31729;DHT22;18309;43.658;1.312;2023-08-07T08:57:38;19.10;92.90
31729;DHT22;18309;43.658;1.312;2023-08-07T09:00:06;19.10;93.00
31729;DHT22;18309;43.658;1.312;2023-08-07T09:02:42;19.20;93.30
31729;DHT22;18309;43.658;1.312;2023-08-07T09:05:08;19.40;92.80
31729;DHT22;18309;43.658;1.312;2023-08-07T09:07:34;19.40;92.80
31729;DHT22;18309;43.658;1.312;2023-08-07T09:10:02;19.40;92.80
31729;DHT22;18309;43.658;1.312;2023-08-07T09:12:29;19.60;91.70
31729;DHT22;18309;43.658;1.312;2023-08-07T09:14:58;19.50;92.40
31729;DHT22;18309;43.658;1.312;2023-08-07T09:17:35;19.60;92.20
31729;DHT22;18309;43.658;1.312;2023-08-07T09:20:04;19.60;91.90
31729;DHT22;18309;43.658;1.312;2023-08-07T09:22:32;19.60;91.60
31729;DHT22;18309;43.658;1.312;2023-08-07T09:24:57;19.60;92.50
31729;DHT22;18309;43.658;1.312;2023-08-07T09:27:25;19.70;91.90
31729;DHT22;18309;43.658;1.312;2023-08-07T09:29:51;19.70;92.50
31729;DHT22;18309;43.658;1.312;2023-08-07T09:32:19;19.70;92.20
31729;DHT22;18309;43.658;1.312;2023-08-07T09:34:49;19.70;92.70
31729;DHT22;18309;43.658;1.312;2023-08-07T09:37:14;19.80;91.80
31729;DHT22;18309;43.658;1.312;2023-08-07T09:39:40;19.80;91.90
31729;DHT22;18309;43.658;1.312;2023-08-07T09:42:16;19.80;92.20
31729;DHT22;18309;43.658;1.312;2023-08-07T09:44:43;20.00;91.80
31729;DHT22;18309;43.658;1.312;2023-08-07T09:47:17;20.10;91.30
31729;DHT22;18309;43.658;1.312;2023-08-07T09:49:44;20.10;91.30
31729;DHT22;18309;43.658;1.312;2023-08-07T09:52:12;20.20;91.30
31729;DHT22;18309;43.658;1.312;2023-08-07T09:54:43;20.30;90.40
31729;DHT22;18309;43.658;1.312;2023-08-07T09:57:09;20.40;90.40
31729;DHT22;18309;43.658;1.312;2023-08-07T09:59:35;20.30;89.50
31729;DHT22;18309;43.658;1.312;2023-08-07T10:02:01;20.10;90.00
31729;DHT22;18309;43.658;1.312;2023-08-07T10:04:28;20.20;90.10
31729;DHT22;18309;43.658;1.312;2023-08-07T10:06:54;20.30;89.40
31729;DHT22;18309;43.658;1.312;2023-08-07T10:09:20;20.30;88.10
31729;DHT22;18309;43.658;1.312;2023-08-07T10:11:47;20.40;87.40
31729;DHT22;18309;43.658;1.312;2023-08-07T10:14:14;20.50;87.20
31729;DHT22;18309;43.658;1.312;2023-08-07T10:16:41;20.60;86.90
31729;DHT22;18309;43.658;1.312;2023-08-07T10:19:08;20.70;87.10
31729;DHT22;18309;43.658;1.312;2023-08-07T10:21:39;20.70;86.90
31729;DHT22;18309;43.658;1.312;2023-08-07T10:24:06;20.80;87.40
31729;DHT22;18309;43.658;1.312;2023-08-07T10:26:35;20.80;86.10
31729;DHT22;18309;43.658;1.312;2023-08-07T10:29:02;20.90;86.00
31729;DHT22;18309;43.658;1.312;2023-08-07T10:31:30;20.90;86.20
31729;DHT22;18309;43.658;1.312;2023-08-07T10:33:56;21.00;85.50
31729;DHT22;18309;43.658;1.312;2023-08-07T10:36:22;21.00;86.00
31729;DHT22;18309;43.658;1.312;2023-08-07T10:38:51;21.20;86.20
31729;DHT22;18309;43.658;1.312;2023-08-07T10:41:38;21.20;85.10
31729;DHT22;18309;43.658;1.312;2023-08-07T10:44:04;21.30;85.10
31729;DHT22;18309;43.658;1.312;2023-08-07T10:46:51;21.30;84.60
31729;DHT22;18309;43.658;1.312;2023-08-07T10:49:35;21.40;84.30
31729;DHT22;18309;43.658;1.312;2023-08-07T10:52:08;21.40;83.40
31729;DHT22;18309;43.658;1.312;2023-08-07T10:54:45;21.40;81.40
31729;DHT22;18309;43.658;1.312;2023-08-07T10:57:13;21.50;81.60
31729;DHT22;18309;43.658;1.312;2023-08-07T10:59:49;21.80;82.00
31729;DHT22;18309;43.658;1.312;2023-08-07T11:02:23;21.80;80.10
31729;DHT22;18309;43.658;1.312;2023-08-07T11:04:51;21.60;79.50
31729;DHT22;18309;43.658;1.312;2023-08-07T11:07:27;21.50;80.80
31729;DHT22;18309;43.658;1.312;2023-08-07T11:09:53;21.60;82.00
31729;DHT22;18309;43.658;1.312;2023-08-07T11:12:20;21.50;81.80
31729;DHT22;18309;43.658;1.312;2023-08-07T11:14:46;21.40;80.70
31729;DHT22;18309;43.658;1.312;2023-08-07T11:17:12;21.60;82.20
31729;DHT22;18309;43.658;1.312;2023-08-07T11:19:38;21.70;83.20
31729;DHT22;18309;43.658;1.312;2023-08-07T11:22:04;21.90;83.60
31729;DHT22;18309;43.658;1.312;2023-08-07T11:24:30;21.90;82.90
31729;DHT22;18309;43.658;1.312;2023-08-07T11:26:56;21.90;82.40
31729;DHT22;18309;43.658;1.312;2023-08-07T11:29:24;21.90;80.60
31729;DHT22;18309;43.658;1.312;2023-08-07T11:31:53;22.00;80.60
31729;DHT22;18309;43.658;1.312;2023-08-07T11:34:19;22.10;81.40
31729;DHT22;18309;43.658;1.312;2023-08-07T11:36:45;22.20;80.00
31729;DHT22;18309;43.658;1.312;2023-08-07T11:39:13;22.30;81.20
31729;DHT22;18309;43.658;1.312;2023-08-07T11:41:39;22.40;79.30
31729;DHT22;18309;43.658;1.312;2023-08-07T11:44:07;22.60;77.50
31729;DHT22;18309;43.658;1.312;2023-08-07T11:46:33;22.80;76.90
31729;DHT22;18309;43.658;1.312;2023-08-07T11:48:59;22.50;75.80
31729;DHT22;18309;43.658;1.312;2023-08-07T11:51:25;22.50;77.70
31729;DHT22;18309;43.658;1.312;2023-08-07T11:53:50;22.60;78.50
31729;DHT22;18309;43.658;1.312;2023-08-07T11:56:22;22.50;78.50
31729;DHT22;18309;43.658;1.312;2023-08-07T11:58:48;22.40;78.90
31729;DHT22;18309;43.658;1.312;2023-08-07T12:01:16;22.50;79.60
31729;DHT22;18309;43.658;1.312;2023-08-07T12:03:50;22.50;80.00
31729;DHT22;18309;43.658;1.312;2023-08-07T12:06:16;22.50;79.00
31729;DHT22;18309;43.658;1.312;2023-08-07T12:08:42;22.40;78.90
31729;DHT22;18309;43.658;1.312;2023-08-07T12:11:12;22.40;79.00
31729;DHT22;18309;43.658;1.312;2023-08-07T12:13:42;22.40;79.30
31729;DHT22;18309;43.658;1.312;2023-08-07T12:16:09;22.80;79.20
31729;DHT22;18309;43.658;1.312;2023-08-07T12:18:35;22.90;76.90
31729;DHT22;18309;43.658;1.312;2023-08-07T12:21:04;22.90;76.70
31729;DHT22;18309;43.658;1.312;2023-08-07T12:23:33;22.60;76.70
31729;DHT22;18309;43.658;1.312;2023-08-07T12:26:00;22.60;77.10
31729;DHT22;18309;43.658;1.312;2023-08-07T12:28:26;22.60;76.40
31729;DHT22;18309;43.658;1.312;2023-08-07T12:30:52;22.60;76.50
31729;DHT22;18309;43.658;1.312;2023-08-07T12:33:18;22.60;76.10
31729;DHT22;18309;43.658;1.312;2023-08-07T12:35:44;22.80;77.50
31729;DHT22;18309;43.658;1.312;2023-08-07T12:38:10;22.90;76.30
31729;DHT22;18309;43.658;1.312;2023-08-07T12:40:36;23.20;76.40
31729;DHT22;18309;43.658;1.312;2023-08-07T12:43:05;23.40;75.00
31729;DHT22;18309;43.658;1.312;2023-08-07T12:45:31;23.30;74.10
31729;DHT22;18309;43.658;1.312;2023-08-07T12:47:58;23.30;74.40
31729;DHT22;18309;43.658;1.312;2023-08-07T12:50:24;23.50;74.60
31729;DHT22;18309;43.658;1.312;2023-08-07T12:52:49;23.60;74.40
31729;DHT22;18309;43.658;1.312;2023-08-07T12:55:15;23.60;72.40
31729;DHT22;18309;43.658;1.312;2023-08-07T12:57:41;23.60;72.20
31729;DHT22;18309;43.658;1.312;2023-08-07T13:00:12;23.70;71.70
31729;DHT22;18309;43.658;1.312;2023-08-07T13:02:45;23.80;71.10
31729;DHT22;18309;43.658;1.312;2023-08-07T13:05:11;23.80;70.50
31729;DHT22;18309;43.658;1.312;2023-08-07T13:07:38;23.90;69.80
31729;DHT22;18309;43.658;1.312;2023-08-07T13:10:05;24.10;70.20
31729;DHT22;18309;43.658;1.312;2023-08-07T13:12:35;24.20;70.70
31729;DHT22;18309;43.658;1.312;2023-08-07T13:15:01;24.40;70.70
31729;DHT22;18309;43.658;1.312;2023-08-07T13:17:27;24.50;67.60
31729;DHT22;18309;43.658;1.312;2023-08-07T13:19:52;24.70;68.10
31729;DHT22;18309;43.658;1.312;2023-08-07T13:22:18;24.90;67.70
31729;DHT22;18309;43.658;1.312;2023-08-07T13:24:44;24.70;66.20
31729;DHT22;18309;43.658;1.312;2023-08-07T13:27:09;24.60;67.40
31729;DHT22;18309;43.658;1.312;2023-08-07T13:29:35;24.60;67.10
31729;DHT22;18309;43.658;1.312;2023-08-07T13:32:01;24.80;65.50
31729;DHT22;18309;43.658;1.312;2023-08-07T13:34:29;25.00;65.30
31729;DHT22;18309;43.658;1.312;2023-08-07T13:36:54;25.30;65.30
31729;DHT22;18309;43.658;1.312;2023-08-07T13:39:20;25.70;63.30
31729;DHT22;18309;43.658;1.312;2023-08-07T13:41:46;25.90;62.00
31729;DHT22;18309;43.658;1.312;2023-08-07T13:44:12;26.10;61.60
31729;DHT22;18309;43.658;1.312;2023-08-07T13:46:38;26.40;60.20
31729;DHT22;18309;43.658;1.312;2023-08-07T13:49:03;26.50;59.40
31729;DHT22;18309;43.658;1.312;2023-08-07T13:51:29;26.70;56.90
31729;DHT22;18309;43.658;1.312;2023-08-07T13:53:55;26.70;57.00
31729;DHT22;18309;43.658;1.312;2023-08-07T13:56:20;27.60;56.10
31729;DHT22;18309;43.658;1.312;2023-08-07T13:58:46;29.10;55.40
31729;DHT22;18309;43.658;1.312;2023-08-07T14:01:12;31.60;50.10
31729;DHT22;18309;43.658;1.312;2023-08-07T14:03:37;34.70;47.50
31729;DHT22;18309;43.658;1.312;2023-08-07T14:06:03;37.10;44.50
31729;DHT22;18309;43.658;1.312;2023-08-07T14:08:29;38.20;43.30
31729;DHT22;18309;43.658;1.312;2023-08-07T14:10:54;38.90;41.50
31729;DHT22;18309;43.658;1.312;2023-08-07T14:13:20;39.00;41.30
31729;DHT22;18309;43.658;1.312;2023-08-07T14:15:46;38.60;42.30
31729;DHT22;18309;43.658;1.312;2023-08-07T14:18:12;37.40;41.90
31729;DHT22;18309;43.658;1.312;2023-08-07T14:20:40;36.10;44.50
31729;DHT22;18309;43.658;1.312;2023-08-07T14:23:06;33.40;46.20
31729;DHT22;18309;43.658;1.312;2023-08-07T14:25:31;32.60;47.20
31729;DHT22;18309;43.658;1.312;2023-08-07T14:27:57;32.50;47.00
31729;DHT22;18309;43.658;1.312;2023-08-07T14:30:23;32.00;48.50
31729;DHT22;18309;43.658;1.312;2023-08-07T14:32:49;32.30;49.90
31729;DHT22;18309;43.658;1.312;2023-08-07T14:35:15;32.30;49.40
31729;DHT22;18309;43.658;1.312;2023-08-07T14:37:40;32.30;49.10
31729;DHT22;18309;43.658;1.312;2023-08-07T14:40:07;32.30;49.00
31729;DHT22;18309;43.658;1.312;2023-08-07T14:42:32;32.20;47.80
31729;DHT22;18309;43.658;1.312;2023-08-07T14:44:58;31.80;48.90
31729;DHT22;18309;43.658;1.312;2023-08-07T14:47:24;31.80;49.90
31729;DHT22;18309;43.658;1.312;2023-08-07T14:49:50;32.00;49.90
31729;DHT22;18309;43.658;1.312;2023-08-07T14:52:16;31.90;49.30
31729;DHT22;18309;43.658;1.312;2023-08-07T14:54:42;31.70;50.20
31729;DHT22;18309;43.658;1.312;2023-08-07T14:57:08;31.90;49.20
31729;DHT22;18309;43.658;1.312;2023-08-07T14:59:33;32.40;49.10
31729;DHT22;18309;43.658;1.312;2023-08-07T15:02:00;32.70;50.00
31729;DHT22;18309;43.658;1.312;2023-08-07T15:04:25;32.80;49.70
31729;DHT22;18309;43.658;1.312;2023-08-07T15:06:51;32.20;48.90
31729;DHT22;18309;43.658;1.312;2023-08-07T15:09:17;31.90;47.90
31729;DHT22;18309;43.658;1.312;2023-08-07T15:11:46;32.00;48.60
31729;DHT22;18309;43.658;1.312;2023-08-07T15:14:12;32.40;50.20
31729;DHT22;18309;43.658;1.312;2023-08-07T15:16:38;31.70;49.90
31729;DHT22;18309;43.658;1.312;2023-08-07T15:19:04;31.40;50.90
31729;DHT22;18309;43.658;1.312;2023-08-07T15:21:30;31.00;50.40
31729;DHT22;18309;43.658;1.312;2023-08-07T15:23:56;30.60;50.60
31729;DHT22;18309;43.658;1.312;2023-08-07T15:26:22;30.40;51.10
31729;DHT22;18309;43.658;1.312;2023-08-07T15:28:48;30.40;51.30
31729;DHT22;18309;43.658;1.312;2023-08-07T15:31:13;30.60;52.00
31729;DHT22;18309;43.658;1.312;2023-08-07T15:33:39;30.80;51.50